createdAt,value
2022-11-10T00:04:58.682Z,94.51
2022-11-10T00:15:22.573Z,94.42
2022-11-10T00:25:29.309Z,94.40
2022-11-10T00:35:34.919Z,94.41
2022-11-10T00:45:45.019Z,94.60
2022-11-10T00:55:50.936Z,94.70
2022-11-10T01:05:56.548Z,94.63
2022-11-10T01:16:06.642Z,94.54
2022-11-10T01:26:12.866Z,94.37
2022-11-10T01:36:18.595Z,94.36
2022-11-10T01:46:24.233Z,94.07
2022-11-10T01:56:33.661Z,94.05
2022-11-10T02:06:42.940Z,94.05
2022-11-10T02:16:48.648Z,94.13
2022-11-10T02:26:57.000Z,94.15
2022-11-10T02:37:02.526Z,94.13
2022-11-10T02:47:09.077Z,94.05
2022-11-10T02:57:14.607Z,94.07
2022-11-10T03:07:20.259Z,94.12
2022-11-10T03:17:26.047Z,93.99
2022-11-10T03:27:32.051Z,94.08
2022-11-10T03:37:37.677Z,94.46
2022-11-10T03:47:45.506Z,94.58
2022-11-10T03:57:51.094Z,94.99
2022-11-10T04:08:20.570Z,95.09
2022-11-10T04:18:26.438Z,95.40
2022-11-10T04:28:32.054Z,95.64
2022-11-10T04:38:38.089Z,96.11
2022-11-10T04:48:43.649Z,96.42
2022-11-10T04:58:49.514Z,96.68
2022-11-10T05:08:55.374Z,97.13
2022-11-10T05:19:00.913Z,97.43
2022-11-10T05:29:06.529Z,97.78
2022-11-10T05:39:12.353Z,98.30
2022-11-10T05:49:18.143Z,98.70
2022-11-10T05:59:23.762Z,98.90
2022-11-10T06:09:29.384Z,99.27
2022-11-10T06:19:35.074Z,99.47
2022-11-10T06:29:40.765Z,99.73
2022-11-10T06:39:46.571Z,99.94
2022-11-10T06:49:52.270Z,100.00
2022-11-10T06:59:57.965Z,100.00
2022-11-10T07:10:06.993Z,100.00
2022-11-10T07:20:14.078Z,100.00
2022-11-10T07:30:20.137Z,100.00
2022-11-10T07:40:26.044Z,100.00
2022-11-10T07:50:32.381Z,100.00
2022-11-10T08:00:39.306Z,100.00
2022-11-10T08:10:45.090Z,100.00
2022-11-10T08:20:50.905Z,100.00
2022-11-10T08:30:59.316Z,100.00
2022-11-10T08:41:07.481Z,100.00
2022-11-10T08:51:13.205Z,100.00
2022-11-10T09:01:18.917Z,100.00
2022-11-10T09:11:24.542Z,99.89
2022-11-10T09:21:30.181Z,99.34
2022-11-10T09:31:35.865Z,99.02
2022-11-10T09:41:45.959Z,98.52
2022-11-10T09:51:53.642Z,97.54
2022-11-10T10:02:04.101Z,96.95
2022-11-10T10:12:24.701Z,96.70
2022-11-10T10:22:47.089Z,96.94
2022-11-10T10:32:58.075Z,97.41
2022-11-10T10:43:04.581Z,96.73
2022-11-10T10:53:16.271Z,96.01
2022-11-10T11:03:29.944Z,95.65
2022-11-10T11:13:35.947Z,94.89
2022-11-10T11:23:54.656Z,94.29
2022-11-10T11:34:07.483Z,93.40
2022-11-10T11:44:25.544Z,92.57
2022-11-10T11:54:33.317Z,92.20
2022-11-10T12:04:46.453Z,91.90
2022-11-10T12:15:00.278Z,91.22
2022-11-10T12:25:14.443Z,90.80
2022-11-10T12:35:24.355Z,90.45
2022-11-10T12:45:33.819Z,89.67
2022-11-10T12:55:43.890Z,88.81
2022-11-10T13:05:58.336Z,88.43
2022-11-10T13:16:04.026Z,88.38
2022-11-10T13:26:12.894Z,88.23
2022-11-10T13:36:39.520Z,87.86
2022-11-10T13:47:14.131Z,87.64
2022-11-10T13:57:32.743Z,87.50
2022-11-10T14:07:42.510Z,87.25
2022-11-10T14:17:51.662Z,87.55
2022-11-10T14:27:58.623Z,86.86
2022-11-10T14:38:07.672Z,86.60
2022-11-10T14:48:21.773Z,86.08
2022-11-10T14:58:33.135Z,86.39
2022-11-10T15:08:39.257Z,87.11
2022-11-10T15:18:45.658Z,88.06
2022-11-10T15:28:52.023Z,88.94
2022-11-10T15:39:16.869Z,89.53
2022-11-10T15:49:26.369Z,90.07
2022-11-10T15:59:32.584Z,90.36
2022-11-10T16:09:38.306Z,90.90
2022-11-10T16:19:44.059Z,91.36
2022-11-10T16:29:49.672Z,92.03
2022-11-10T16:39:55.601Z,92.77
2022-11-10T16:50:01.397Z,93.36
2022-11-10T17:00:08.806Z,93.89
2022-11-10T17:10:19.785Z,94.36
2022-11-10T17:20:29.923Z,94.91
2022-11-10T17:30:36.470Z,95.57
2022-11-10T17:40:43.817Z,95.69
2022-11-10T17:50:49.490Z,96.04
2022-11-10T18:00:55.160Z,96.89
2022-11-10T18:11:02.937Z,97.54
2022-11-10T18:21:09.671Z,97.14
2022-11-10T18:31:15.468Z,97.40
2022-11-10T18:41:39.152Z,97.68
2022-11-10T18:51:45.076Z,98.16
2022-11-10T19:01:51.317Z,98.44
2022-11-10T19:11:57.539Z,98.11
2022-11-10T19:22:03.114Z,98.26
2022-11-10T19:32:08.851Z,98.31
2022-11-10T19:42:14.936Z,98.63
2022-11-10T19:52:20.645Z,98.69
2022-11-10T20:02:26.326Z,99.11
2022-11-10T20:12:32.209Z,99.30
2022-11-10T20:22:37.935Z,99.48
2022-11-10T20:32:43.666Z,99.52
2022-11-10T20:42:49.817Z,98.98
2022-11-10T20:52:55.856Z,99.47
2022-11-10T21:03:01.444Z,99.58
2022-11-10T21:13:07.084Z,99.91
2022-11-10T21:23:13.054Z,99.99
2022-11-10T21:33:19.165Z,100.00
2022-11-10T21:43:25.082Z,100.00
2022-11-10T21:53:31.549Z,100.00
2022-11-10T22:03:39.082Z,100.00
2022-11-10T22:14:02.764Z,100.00
2022-11-10T22:24:24.214Z,100.00
2022-11-10T22:34:30.301Z,100.00
2022-11-10T22:44:37.244Z,100.00
2022-11-10T22:54:43.293Z,100.00
2022-11-10T23:04:49.277Z,100.00
2022-11-10T23:14:55.046Z,100.00
2022-11-10T23:25:00.782Z,100.00
2022-11-10T23:35:07.072Z,100.00
2022-11-10T23:45:13.349Z,100.00
2022-11-10T23:55:19.211Z,100.00
